createdAt,value
2022-10-09T00:01:14.417Z,9.31
2022-10-09T00:03:43.821Z,9.36
2022-10-09T00:06:14.542Z,9.29
2022-10-09T00:08:43.761Z,9.20
2022-10-09T00:11:15.726Z,9.15
2022-10-09T00:13:43.689Z,9.31
2022-10-09T00:16:13.355Z,9.44
2022-10-09T00:18:41.469Z,9.28
2022-10-09T00:21:18.153Z,9.27
2022-10-09T00:23:46.111Z,9.44
2022-10-09T00:26:15.524Z,9.44
2022-10-09T00:28:43.667Z,9.27
2022-10-09T00:31:12.833Z,9.13
2022-10-09T00:33:41.258Z,9.22
2022-10-09T00:36:15.218Z,9.39
2022-10-09T00:38:43.372Z,9.55
2022-10-09T00:41:16.725Z,9.44
2022-10-09T00:43:47.900Z,9.46
2022-10-09T00:46:27.056Z,9.37
2022-10-09T00:49:01.310Z,9.28
2022-10-09T00:51:30.063Z,9.45
2022-10-09T00:53:58.153Z,9.39
2022-10-09T00:56:27.611Z,9.24
2022-10-09T00:58:58.111Z,9.27
2022-10-09T01:01:26.277Z,9.20
2022-10-09T01:03:54.226Z,9.12
2022-10-09T01:06:27.973Z,9.11
2022-10-09T01:09:01.766Z,9.09
2022-10-09T01:11:37.794Z,9.07
2022-10-09T01:14:12.260Z,9.09
2022-10-09T01:16:44.654Z,9.11
2022-10-09T01:19:22.592Z,9.28
2022-10-09T01:21:56.728Z,9.27
2022-10-09T01:24:29.163Z,9.37
2022-10-09T01:27:04.526Z,9.43
2022-10-09T01:29:35.785Z,9.49
2022-10-09T01:32:04.898Z,9.25
2022-10-09T01:34:33.813Z,9.25
2022-10-09T01:37:02.185Z,9.15
2022-10-09T01:39:31.604Z,9.20
2022-10-09T01:42:00.948Z,9.17
2022-10-09T01:44:30.734Z,9.18
2022-10-09T01:46:58.930Z,9.02
2022-10-09T01:49:41.063Z,9.02
2022-10-09T01:52:16.970Z,9.02
2022-10-09T01:54:52.644Z,9.01
2022-10-09T01:57:28.245Z,8.86
2022-10-09T01:59:57.467Z,8.78
2022-10-09T02:02:25.838Z,8.77
2022-10-09T02:04:53.955Z,8.87
2022-10-09T02:07:22.398Z,9.09
2022-10-09T02:09:50.442Z,9.11
2022-10-09T02:12:21.637Z,9.18
2022-10-09T02:14:50.160Z,9.15
2022-10-09T02:17:20.057Z,8.95
2022-10-09T02:19:50.398Z,9.18
2022-10-09T02:22:20.437Z,9.19
2022-10-09T02:24:48.746Z,8.94
2022-10-09T02:27:17.192Z,9.00
2022-10-09T02:29:47.431Z,9.09
2022-10-09T02:32:15.456Z,9.17
2022-10-09T02:34:43.550Z,9.11
2022-10-09T02:37:11.587Z,9.05
2022-10-09T02:39:39.529Z,9.07
2022-10-09T02:42:07.479Z,9.13
2022-10-09T02:44:35.390Z,8.85
2022-10-09T02:47:04.864Z,9.02
2022-10-09T02:49:32.778Z,8.98
2022-10-09T02:52:00.810Z,8.91
2022-10-09T02:54:28.726Z,8.88
2022-10-09T02:56:56.642Z,9.05
2022-10-09T02:59:24.550Z,8.99
2022-10-09T03:01:52.722Z,9.00
2022-10-09T03:04:22.123Z,8.95
2022-10-09T03:06:49.991Z,8.95
2022-10-09T03:09:17.946Z,8.70
2022-10-09T03:11:45.814Z,8.67
2022-10-09T03:14:13.868Z,8.71
2022-10-09T03:16:41.769Z,8.56
2022-10-09T03:19:09.646Z,8.48
2022-10-09T03:21:39.014Z,8.52
2022-10-09T03:24:07.010Z,8.38
2022-10-09T03:26:34.948Z,8.45
2022-10-09T03:29:02.867Z,8.49
2022-10-09T03:31:51.063Z,8.45
2022-10-09T03:34:19.055Z,8.36
2022-10-09T03:36:48.352Z,8.33
2022-10-09T03:39:16.334Z,8.37
2022-10-09T03:41:44.236Z,8.37
2022-10-09T03:44:12.135Z,8.35
2022-10-09T03:46:40.116Z,8.35
2022-10-09T03:49:08.105Z,8.36
2022-10-09T03:51:36.087Z,8.33
2022-10-09T03:54:06.078Z,8.31
2022-10-09T03:56:33.954Z,8.29
2022-10-09T03:59:01.898Z,8.24
2022-10-09T04:01:29.873Z,8.20
2022-10-09T04:03:57.730Z,8.06
2022-10-09T04:06:25.933Z,7.98
2022-10-09T04:08:53.927Z,7.93
2022-10-09T04:11:23.714Z,7.87
2022-10-09T04:13:51.913Z,7.81
2022-10-09T04:16:19.845Z,7.87
2022-10-09T04:18:48.174Z,7.92
2022-10-09T04:21:16.133Z,8.02
2022-10-09T04:23:44.084Z,8.14
2022-10-09T04:26:13.211Z,8.12
2022-10-09T04:28:42.565Z,8.13
2022-10-09T04:31:10.765Z,7.99
2022-10-09T04:33:38.762Z,7.96
2022-10-09T04:36:07.024Z,8.15
2022-10-09T04:38:34.965Z,8.07
2022-10-09T04:41:04.982Z,7.99
2022-10-09T04:43:33.294Z,7.87
2022-10-09T04:46:05.623Z,7.92
2022-10-09T04:48:33.677Z,7.94
2022-10-09T04:51:04.959Z,7.87
2022-10-09T04:53:32.981Z,7.83
2022-10-09T04:56:03.386Z,7.77
2022-10-09T04:58:31.734Z,7.73
2022-10-09T05:00:59.855Z,7.61
2022-10-09T05:03:29.461Z,7.64
2022-10-09T05:06:02.193Z,7.62
2022-10-09T05:08:31.688Z,7.50
2022-10-09T05:11:02.770Z,7.34
2022-10-09T05:13:31.756Z,7.32
2022-10-09T05:16:02.936Z,7.18
2022-10-09T05:18:32.430Z,7.22
2022-10-09T05:21:00.377Z,7.07
2022-10-09T05:23:28.721Z,7.18
2022-10-09T05:25:57.049Z,7.29
2022-10-09T05:28:25.535Z,7.28
2022-10-09T05:30:53.501Z,7.24
2022-10-09T05:33:21.776Z,7.60
2022-10-09T05:35:54.907Z,7.42
2022-10-09T05:38:23.832Z,7.34
2022-10-09T05:40:52.875Z,7.39
2022-10-09T05:43:21.257Z,7.18
2022-10-09T05:45:49.184Z,7.10
2022-10-09T05:48:17.162Z,7.17
2022-10-09T05:50:45.159Z,7.05
2022-10-09T05:53:14.595Z,7.01
2022-10-09T05:55:42.526Z,7.29
2022-10-09T05:58:10.395Z,7.18
2022-10-09T06:00:38.309Z,7.42
2022-10-09T06:03:06.226Z,7.45
2022-10-09T06:05:34.101Z,7.54
2022-10-09T06:08:02.006Z,7.54
2022-10-09T06:10:32.569Z,7.71
2022-10-09T06:13:00.626Z,7.60
2022-10-09T06:15:28.617Z,7.51
2022-10-09T06:17:56.485Z,7.49
2022-10-09T06:20:24.417Z,7.36
2022-10-09T06:22:52.894Z,7.55
2022-10-09T06:25:20.811Z,7.68
2022-10-09T06:27:50.053Z,7.64
2022-10-09T06:30:17.997Z,7.58
2022-10-09T06:32:45.925Z,7.65
2022-10-09T06:35:14.006Z,7.54
2022-10-09T06:37:41.993Z,7.63
2022-10-09T06:40:10.750Z,7.73
2022-10-09T06:42:38.629Z,7.76
2022-10-09T06:45:09.429Z,7.74
2022-10-09T06:47:37.402Z,7.75
2022-10-09T06:50:05.961Z,7.72
2022-10-09T06:52:33.894Z,7.67
2022-10-09T06:55:01.786Z,7.71
2022-10-09T06:57:29.705Z,7.69
2022-10-09T06:59:57.639Z,7.79
2022-10-09T07:02:27.017Z,7.81
2022-10-09T07:04:54.941Z,7.84
2022-10-09T07:07:22.857Z,7.90
2022-10-09T07:09:52.785Z,7.96
2022-10-09T07:12:20.733Z,8.07
2022-10-09T07:14:48.654Z,8.14
2022-10-09T07:17:16.618Z,8.19
2022-10-09T07:19:46.071Z,8.17
2022-10-09T07:22:14.153Z,8.19
2022-10-09T07:24:42.017Z,8.28
2022-10-09T07:27:09.935Z,8.35
2022-10-09T07:29:37.930Z,8.42
2022-10-09T07:32:10.254Z,8.45
2022-10-09T07:34:38.562Z,8.51
2022-10-09T07:37:07.999Z,8.58
2022-10-09T07:39:36.421Z,8.62
2022-10-09T07:42:04.914Z,8.74
2022-10-09T07:44:32.853Z,8.74
2022-10-09T07:47:00.764Z,8.86
2022-10-09T07:49:28.752Z,8.95
2022-10-09T07:51:56.638Z,9.02
2022-10-09T07:54:26.087Z,9.15
2022-10-09T07:56:53.958Z,9.16
2022-10-09T07:59:21.866Z,9.20
2022-10-09T08:01:49.862Z,9.39
2022-10-09T08:04:17.838Z,9.42
2022-10-09T08:06:45.903Z,9.57
2022-10-09T08:09:14.132Z,9.60
2022-10-09T08:11:44.609Z,9.76
2022-10-09T08:14:19.274Z,9.80
2022-10-09T08:16:47.895Z,9.85
2022-10-09T08:19:15.875Z,9.89
2022-10-09T08:21:43.836Z,9.94
2022-10-09T08:24:12.977Z,10.10
2022-10-09T08:26:40.976Z,10.26
2022-10-09T08:29:13.812Z,10.34
2022-10-09T08:31:41.853Z,10.39
2022-10-09T08:34:10.588Z,10.37
2022-10-09T08:36:38.499Z,10.45
2022-10-09T08:39:06.469Z,10.40
2022-10-09T08:41:45.039Z,10.47
2022-10-09T08:44:19.327Z,10.48
2022-10-09T08:47:05.496Z,10.67
2022-10-09T08:49:45.344Z,10.70
2022-10-09T08:52:22.784Z,10.83
2022-10-09T08:54:51.232Z,10.93
2022-10-09T08:57:19.165Z,11.01
2022-10-09T08:59:48.476Z,11.18
2022-10-09T09:02:34.100Z,11.35
2022-10-09T09:05:16.545Z,11.33
2022-10-09T09:07:51.562Z,11.57
2022-10-09T09:10:26.964Z,11.78
2022-10-09T09:12:58.028Z,11.82
2022-10-09T09:15:36.370Z,11.96
2022-10-09T09:18:15.762Z,11.98
2022-10-09T09:20:50.133Z,12.05
2022-10-09T09:23:18.170Z,12.26
2022-10-09T09:25:46.905Z,12.24
2022-10-09T09:28:18.135Z,12.37
2022-10-09T09:30:51.819Z,12.36
2022-10-09T09:33:23.622Z,12.47
2022-10-09T09:35:56.413Z,12.54
2022-10-09T09:38:24.487Z,12.76
2022-10-09T09:40:52.380Z,12.70
2022-10-09T09:43:21.866Z,12.86
2022-10-09T09:45:54.238Z,13.05
2022-10-09T09:48:27.975Z,13.07
2022-10-09T09:51:16.308Z,13.02
2022-10-09T09:53:45.540Z,12.98
2022-10-09T09:56:13.496Z,13.21
2022-10-09T09:58:47.017Z,13.13
2022-10-09T10:01:27.319Z,13.31
2022-10-09T10:03:57.626Z,13.35
2022-10-09T10:06:26.675Z,13.47
2022-10-09T10:09:05.239Z,13.63
2022-10-09T10:11:34.997Z,13.59
2022-10-09T10:14:08.253Z,13.76
2022-10-09T10:16:39.040Z,13.44
2022-10-09T10:19:07.387Z,13.39
2022-10-09T10:21:41.905Z,13.39
2022-10-09T10:24:14.662Z,13.73
2022-10-09T10:26:44.672Z,13.69
2022-10-09T10:29:15.337Z,13.57
2022-10-09T10:31:51.377Z,13.63
2022-10-09T10:34:22.571Z,13.82
2022-10-09T10:36:53.752Z,13.60
2022-10-09T10:39:26.178Z,13.55
2022-10-09T10:41:57.212Z,13.72
2022-10-09T10:44:30.569Z,13.90
2022-10-09T10:47:05.519Z,14.31
2022-10-09T10:49:34.151Z,14.69
2022-10-09T10:52:13.373Z,14.48
2022-10-09T10:54:42.294Z,14.78
2022-10-09T10:57:16.849Z,14.93
2022-10-09T10:59:54.550Z,15.10
2022-10-09T11:02:52.503Z,15.15
2022-10-09T11:05:29.235Z,15.20
2022-10-09T11:08:13.644Z,15.13
2022-10-09T11:10:47.725Z,14.73
2022-10-09T11:13:20.646Z,14.88
2022-10-09T11:15:56.344Z,15.26
2022-10-09T11:18:35.361Z,15.29
2022-10-09T11:21:20.555Z,15.45
2022-10-09T11:23:59.003Z,15.69
2022-10-09T11:26:32.318Z,15.82
2022-10-09T11:29:03.093Z,15.31
2022-10-09T11:31:34.477Z,15.27
2022-10-09T11:34:06.966Z,15.68
2022-10-09T11:36:37.199Z,15.57
2022-10-09T11:39:06.909Z,15.80
2022-10-09T11:41:36.708Z,15.51
2022-10-09T11:44:26.704Z,15.00
2022-10-09T11:47:01.922Z,15.66
2022-10-09T11:49:38.067Z,15.92
2022-10-09T11:52:12.270Z,15.83
2022-10-09T11:54:41.010Z,15.98
2022-10-09T11:57:14.337Z,16.03
2022-10-09T11:59:43.342Z,16.02
2022-10-09T12:02:25.622Z,15.52
2022-10-09T12:04:55.859Z,14.89
2022-10-09T12:07:32.639Z,15.05
2022-10-09T12:10:05.311Z,14.92
2022-10-09T12:12:34.901Z,15.10
2022-10-09T12:15:13.198Z,15.59
2022-10-09T12:17:50.049Z,16.16
2022-10-09T12:20:21.605Z,16.05
2022-10-09T12:23:14.237Z,15.88
2022-10-09T12:25:45.813Z,16.23
2022-10-09T12:28:21.155Z,16.74
2022-10-09T12:30:50.107Z,16.63
2022-10-09T12:33:23.965Z,16.34
2022-10-09T12:36:02.383Z,15.72
2022-10-09T12:38:32.447Z,15.82
2022-10-09T12:41:02.586Z,15.82
2022-10-09T12:43:31.382Z,15.49
2022-10-09T12:46:00.021Z,15.70
2022-10-09T12:48:30.075Z,16.30
2022-10-09T12:50:59.384Z,16.66
2022-10-09T12:53:28.261Z,16.56
2022-10-09T12:56:00.093Z,16.58
2022-10-09T12:58:30.142Z,15.90
2022-10-09T13:01:00.393Z,15.73
2022-10-09T13:03:35.859Z,16.31
2022-10-09T13:06:06.876Z,16.13
2022-10-09T13:08:37.126Z,16.16
2022-10-09T13:11:12.113Z,16.49
2022-10-09T13:13:40.875Z,17.19
2022-10-09T13:16:10.784Z,17.22
2022-10-09T13:18:39.451Z,16.42
2022-10-09T13:21:23.220Z,16.59
2022-10-09T13:23:51.440Z,16.42
2022-10-09T13:26:25.162Z,17.04
2022-10-09T13:28:53.136Z,17.07
2022-10-09T13:31:21.207Z,17.16
2022-10-09T13:33:49.480Z,16.34
2022-10-09T13:36:19.916Z,17.08
2022-10-09T13:38:48.778Z,16.82
2022-10-09T13:41:20.533Z,16.89
2022-10-09T13:43:49.155Z,17.02
2022-10-09T13:46:17.337Z,16.66
2022-10-09T13:48:45.377Z,16.73
2022-10-09T13:51:13.771Z,17.35
2022-10-09T13:53:43.052Z,18.12
2022-10-09T13:56:11.069Z,17.41
2022-10-09T13:58:39.010Z,17.25
2022-10-09T14:01:07.220Z,17.76
2022-10-09T14:03:35.126Z,17.71
2022-10-09T14:06:04.334Z,17.37
2022-10-09T14:08:32.281Z,17.80
2022-10-09T14:11:02.469Z,18.67
2022-10-09T14:13:30.531Z,18.98
2022-10-09T14:15:58.486Z,18.14
2022-10-09T14:18:26.390Z,17.55
2022-10-09T14:20:54.354Z,17.72
2022-10-09T14:23:22.269Z,16.89
2022-10-09T14:25:50.193Z,16.48
2022-10-09T14:28:19.533Z,16.31
2022-10-09T14:30:47.463Z,16.56
2022-10-09T14:33:15.368Z,16.64
2022-10-09T14:35:43.329Z,17.68
2022-10-09T14:38:11.189Z,18.16
2022-10-09T14:40:43.195Z,17.24
2022-10-09T14:43:11.321Z,17.65
2022-10-09T14:45:40.606Z,17.38
2022-10-09T14:48:08.497Z,17.11
2022-10-09T14:50:37.440Z,16.72
2022-10-09T14:53:05.325Z,17.23
2022-10-09T14:55:35.438Z,17.42
2022-10-09T14:58:03.353Z,17.49
2022-10-09T15:00:31.292Z,17.99
2022-10-09T15:03:00.595Z,17.73
2022-10-09T15:05:28.473Z,17.22
2022-10-09T15:07:56.401Z,17.58
2022-10-09T15:10:24.290Z,18.21
2022-10-09T15:12:52.207Z,18.26
2022-10-09T15:15:20.153Z,16.71
2022-10-09T15:17:48.366Z,16.42
2022-10-09T15:20:17.970Z,16.06
2022-10-09T15:22:45.989Z,16.82
2022-10-09T15:25:15.707Z,16.41
2022-10-09T15:27:43.606Z,15.59
2022-10-09T15:30:12.701Z,16.39
2022-10-09T15:32:40.636Z,15.55
2022-10-09T15:35:09.631Z,15.50
2022-10-09T15:37:38.946Z,15.25
2022-10-09T15:40:07.802Z,15.28
2022-10-09T15:42:37.063Z,15.35
2022-10-09T15:45:05.746Z,15.30
2022-10-09T15:47:50.546Z,15.25
2022-10-09T15:50:19.215Z,15.19
2022-10-09T15:52:48.785Z,15.31
2022-10-09T15:55:17.001Z,15.21
2022-10-09T15:57:44.913Z,15.81
2022-10-09T16:00:13.709Z,15.55
2022-10-09T16:02:41.660Z,15.52
2022-10-09T16:05:10.347Z,15.33
2022-10-09T16:07:38.240Z,15.47
2022-10-09T16:10:08.381Z,15.69
2022-10-09T16:12:36.246Z,15.54
2022-10-09T16:15:04.140Z,15.18
2022-10-09T16:17:32.042Z,14.48
2022-10-09T16:20:00.240Z,14.65
2022-10-09T16:22:28.126Z,14.78
2022-10-09T16:24:55.990Z,14.71
2022-10-09T16:27:25.388Z,14.69
2022-10-09T16:29:53.453Z,14.46
2022-10-09T16:32:21.357Z,14.73
2022-10-09T16:34:50.401Z,14.67
2022-10-09T16:37:18.319Z,14.26
2022-10-09T16:39:46.394Z,14.42
2022-10-09T16:42:14.638Z,14.45
2022-10-09T16:44:43.950Z,14.36
2022-10-09T16:47:13.136Z,14.19
2022-10-09T16:49:41.080Z,14.03
2022-10-09T16:52:08.947Z,13.66
2022-10-09T16:54:36.822Z,13.45
2022-10-09T16:57:05.032Z,13.48
2022-10-09T16:59:32.899Z,13.47
2022-10-09T17:02:03.629Z,13.56
2022-10-09T17:04:31.609Z,13.37
2022-10-09T17:06:59.671Z,13.19
2022-10-09T17:09:29.516Z,13.05
2022-10-09T17:11:58.153Z,13.33
2022-10-09T17:14:26.100Z,13.41
2022-10-09T17:16:54.111Z,13.33
2022-10-09T17:19:23.389Z,13.25
2022-10-09T17:21:51.458Z,13.25
2022-10-09T17:24:19.348Z,13.17
2022-10-09T17:26:47.396Z,13.20
2022-10-09T17:29:15.771Z,13.03
2022-10-09T17:31:43.710Z,12.54
2022-10-09T17:34:12.930Z,12.34
2022-10-09T17:36:43.301Z,12.23
2022-10-09T17:39:14.134Z,12.08
2022-10-09T17:41:42.109Z,12.22
2022-10-09T17:44:11.175Z,12.18
2022-10-09T17:46:39.166Z,11.91
2022-10-09T17:49:07.068Z,11.88
2022-10-09T17:51:36.884Z,12.04
2022-10-09T17:54:10.970Z,11.54
2022-10-09T17:56:40.508Z,11.75
2022-10-09T17:59:08.529Z,11.64
2022-10-09T18:01:36.562Z,11.70
2022-10-09T18:04:04.653Z,11.60
2022-10-09T18:06:33.447Z,11.67
2022-10-09T18:09:02.142Z,11.46
2022-10-09T18:11:31.629Z,11.46
2022-10-09T18:13:59.542Z,11.58
2022-10-09T18:16:35.835Z,11.54
2022-10-09T18:19:05.650Z,11.35
2022-10-09T18:21:34.388Z,11.47
2022-10-09T18:24:02.419Z,11.26
2022-10-09T18:26:31.678Z,11.17
2022-10-09T18:28:59.763Z,11.15
2022-10-09T18:31:27.978Z,11.00
2022-10-09T18:33:55.882Z,10.96
2022-10-09T18:36:25.802Z,11.14
2022-10-09T18:38:55.900Z,10.97
2022-10-09T18:41:24.367Z,10.91
2022-10-09T18:43:54.503Z,10.82
2022-10-09T18:46:25.667Z,10.85
2022-10-09T18:48:54.161Z,10.81
2022-10-09T18:51:23.838Z,10.75
2022-10-09T18:53:53.660Z,10.92
2022-10-09T18:56:22.278Z,10.80
2022-10-09T18:58:51.053Z,10.98
2022-10-09T19:01:20.605Z,11.08
2022-10-09T19:03:50.190Z,10.77
2022-10-09T19:06:18.555Z,10.88
2022-10-09T19:08:47.373Z,10.85
2022-10-09T19:11:15.370Z,10.77
2022-10-09T19:13:43.721Z,10.80
2022-10-09T19:16:11.802Z,10.70
2022-10-09T19:18:41.191Z,10.75
2022-10-09T19:21:13.701Z,10.75
2022-10-09T19:23:41.873Z,10.66
2022-10-09T19:26:09.801Z,10.65
2022-10-09T19:28:38.725Z,10.54
2022-10-09T19:31:07.269Z,10.53
2022-10-09T19:33:35.305Z,10.18
2022-10-09T19:36:05.117Z,10.16
2022-10-09T19:38:33.373Z,10.13
2022-10-09T19:41:04.652Z,9.99
2022-10-09T19:43:32.972Z,10.05
2022-10-09T19:46:04.782Z,9.97
2022-10-09T19:48:32.662Z,9.82
2022-10-09T19:51:01.509Z,9.58
2022-10-09T19:53:30.834Z,9.50
2022-10-09T19:55:58.706Z,9.66
2022-10-09T19:58:26.637Z,9.76
2022-10-09T20:00:54.571Z,9.82
2022-10-09T20:03:22.515Z,9.58
2022-10-09T20:05:50.425Z,9.75
2022-10-09T20:08:18.295Z,9.76
2022-10-09T20:10:47.680Z,9.93
2022-10-09T20:13:15.578Z,9.97
2022-10-09T20:15:43.773Z,9.80
2022-10-09T20:18:11.676Z,9.72
2022-10-09T20:20:40.437Z,9.84
2022-10-09T20:23:08.340Z,9.71
2022-10-09T20:25:36.402Z,9.72
2022-10-09T20:28:05.777Z,9.81
2022-10-09T20:30:33.705Z,9.76
2022-10-09T20:33:02.293Z,9.92
2022-10-09T20:35:30.286Z,9.94
2022-10-09T20:37:59.216Z,9.98
2022-10-09T20:40:27.782Z,9.87
2022-10-09T20:42:55.677Z,9.99
2022-10-09T20:45:25.052Z,9.96
2022-10-09T20:47:52.982Z,10.12
2022-10-09T20:50:21.068Z,10.12
2022-10-09T20:52:49.154Z,10.05
2022-10-09T20:55:17.428Z,10.03
2022-10-09T20:57:45.339Z,9.99
2022-10-09T21:00:14.260Z,9.96
2022-10-09T21:02:43.542Z,9.91
2022-10-09T21:05:11.429Z,9.99
2022-10-09T21:07:39.397Z,9.94
2022-10-09T21:10:08.126Z,9.86
2022-10-09T21:12:36.033Z,9.85
2022-10-09T21:15:04.057Z,9.85
2022-10-09T21:17:32.107Z,9.83
2022-10-09T21:20:01.796Z,9.99
2022-10-09T21:22:29.670Z,10.01
2022-10-09T21:24:57.557Z,9.93
2022-10-09T21:27:25.442Z,9.97
2022-10-09T21:29:53.365Z,9.96
2022-10-09T21:32:21.330Z,9.92
2022-10-09T21:34:50.646Z,9.88
2022-10-09T21:37:21.919Z,9.82
2022-10-09T21:39:50.454Z,9.88
2022-10-09T21:42:18.343Z,9.84
2022-10-09T21:44:46.245Z,9.75
2022-10-09T21:47:18.043Z,9.82
2022-10-09T21:49:45.933Z,9.68
2022-10-09T21:52:13.852Z,9.76
2022-10-09T21:54:43.152Z,9.77
2022-10-09T21:57:11.178Z,9.76
2022-10-09T21:59:39.083Z,9.72
2022-10-09T22:02:06.972Z,9.68
2022-10-09T22:04:35.048Z,9.76
2022-10-09T22:07:02.962Z,9.77
2022-10-09T22:09:31.011Z,9.67
2022-10-09T22:12:00.375Z,9.63
2022-10-09T22:14:28.337Z,9.67
2022-10-09T22:16:56.263Z,9.65
2022-10-09T22:19:24.133Z,9.63
2022-10-09T22:21:52.026Z,9.66
2022-10-09T22:24:20.021Z,9.71
2022-10-09T22:26:48.045Z,9.71
2022-10-09T22:29:17.350Z,9.72
2022-10-09T22:31:45.273Z,9.67
2022-10-09T22:34:13.333Z,9.64
2022-10-09T22:36:41.408Z,9.60
2022-10-09T22:39:09.599Z,9.54
2022-10-09T22:41:37.521Z,9.54
2022-10-09T22:44:07.305Z,9.67
2022-10-09T22:46:38.060Z,9.71
2022-10-09T22:49:06.564Z,9.67
2022-10-09T22:51:34.895Z,9.68
2022-10-09T22:54:02.830Z,9.63
2022-10-09T22:56:33.868Z,9.53
2022-10-09T22:59:01.766Z,9.66
2022-10-09T23:01:32.578Z,9.61
2022-10-09T23:04:04.685Z,9.57
2022-10-09T23:06:32.740Z,9.61
2022-10-09T23:09:01.346Z,9.73
2022-10-09T23:11:29.315Z,9.56
2022-10-09T23:13:58.372Z,9.55
2022-10-09T23:16:27.194Z,9.48
2022-10-09T23:18:57.500Z,9.53
2022-10-09T23:21:27.198Z,9.61
2022-10-09T23:23:56.573Z,9.67
2022-10-09T23:26:26.620Z,9.53
2022-10-09T23:28:56.326Z,9.42
2022-10-09T23:31:24.738Z,9.44
2022-10-09T23:33:52.677Z,9.50
2022-10-09T23:36:22.841Z,9.46
2022-10-09T23:38:52.531Z,9.49
2022-10-09T23:41:23.358Z,9.58
2022-10-09T23:43:51.537Z,9.47
2022-10-09T23:46:22.264Z,9.49
2022-10-09T23:48:50.986Z,9.52
2022-10-09T23:51:19.578Z,9.53
2022-10-09T23:53:47.884Z,9.48
2022-10-09T23:56:21.763Z,9.48
2022-10-09T23:58:49.837Z,9.49
